Terminal Aerodrome Forecast
Issued by NWS

Current Version | Previous Version | Text Only | Print | Product List | Glossary On
Versions: 1 2 3 4 5 6 7 8 9 10 11 12 13 14 15 16 17 18 19 20 21 22 23 24 25 26
000
FTPQ31 PGUM 272031 AAA
TAFGUM
TAF AMD

TAF AMD
PGSN 272031Z 2721/2818 07011KT P6SM VCSH FEW020 SCT045 SCT160
     FM280000 07011G20KT P6SM VCSH FEW020 SCT045 SCT160=

USA.gov is the U.S. government's official web portal to all federal, state and local government web resources and services.